createdAt,value
2022-08-02T00:00:12.796Z,17.14
2022-08-02T00:01:12.849Z,17.06
2022-08-02T00:02:13.114Z,17.10
2022-08-02T00:03:12.738Z,17.10
2022-08-02T00:05:54.942Z,17.02
2022-08-02T00:06:54.917Z,17.09
2022-08-02T00:07:54.936Z,17.06
2022-08-02T00:08:54.884Z,17.09
2022-08-02T00:09:54.866Z,17.09
2022-08-02T00:10:54.848Z,17.09
2022-08-02T00:11:54.840Z,17.10
2022-08-02T00:12:55.223Z,17.09
2022-08-02T00:13:54.796Z,17.02
2022-08-02T00:14:54.771Z,17.07
2022-08-02T00:15:54.766Z,17.10
2022-08-02T00:16:54.747Z,17.09
2022-08-02T00:17:54.744Z,16.98
2022-08-02T00:18:54.701Z,17.12
2022-08-02T00:19:54.687Z,17.09
2022-08-02T00:20:54.668Z,17.02
2022-08-02T00:21:54.655Z,17.10
2022-08-02T00:22:54.653Z,17.06
2022-08-02T00:24:27.783Z,17.01
2022-08-02T00:24:54.615Z,17.02
2022-08-02T00:25:55.920Z,17.06
2022-08-02T00:26:54.562Z,17.06
2022-08-02T00:27:54.547Z,16.95
2022-08-02T00:28:54.544Z,16.98
2022-08-02T00:29:54.517Z,17.04
2022-08-02T00:30:54.504Z,16.99
2022-08-02T00:31:54.469Z,17.04
2022-08-02T00:32:54.452Z,16.99
2022-08-02T00:34:05.139Z,16.92
2022-08-02T00:34:54.424Z,17.06
2022-08-02T00:35:54.398Z,16.99
2022-08-02T00:36:54.381Z,17.04
2022-08-02T00:37:54.382Z,16.95
2022-08-02T00:38:54.368Z,16.97
2022-08-02T00:39:54.329Z,16.95
2022-08-02T00:40:58.053Z,16.95
2022-08-02T00:41:54.295Z,16.87
2022-08-02T00:42:54.271Z,16.88
2022-08-02T00:43:54.279Z,16.91
2022-08-02T00:44:54.260Z,16.84
2022-08-02T00:46:02.692Z,16.95
2022-08-02T00:46:54.199Z,16.94
2022-08-02T00:47:54.199Z,16.95
2022-08-02T00:48:54.220Z,16.91
2022-08-02T00:49:54.167Z,16.95
2022-08-02T00:50:54.147Z,16.94
2022-08-02T00:51:54.113Z,16.95
2022-08-02T00:52:54.089Z,16.94
2022-08-02T00:53:54.071Z,16.91
2022-08-02T00:54:54.082Z,16.90
2022-08-02T00:55:54.039Z,16.95
2022-08-02T00:56:54.024Z,16.90
2022-08-02T00:57:54.008Z,16.87
2022-08-02T00:58:53.992Z,16.94
2022-08-02T00:59:53.967Z,16.95
2022-08-02T01:00:53.974Z,16.87
2022-08-02T01:01:56.261Z,16.91
2022-08-02T01:02:53.918Z,16.91
2022-08-02T01:03:53.896Z,16.87
2022-08-02T01:04:53.912Z,16.90
2022-08-02T01:06:09.145Z,16.84
2022-08-02T01:06:53.842Z,16.88
2022-08-02T01:07:53.842Z,16.69
2022-08-02T01:08:53.805Z,16.90
2022-08-02T01:09:53.788Z,16.91
2022-08-02T01:10:53.773Z,16.87
2022-08-02T01:11:53.754Z,16.82
2022-08-02T01:12:53.759Z,16.84
2022-08-02T01:13:53.711Z,16.82
2022-08-02T01:14:53.702Z,16.83
2022-08-02T01:15:53.679Z,16.73
2022-08-02T01:16:53.661Z,16.77
2022-08-02T01:17:53.648Z,16.74
2022-08-02T01:18:53.643Z,16.70
2022-08-02T01:19:53.610Z,16.72
2022-08-02T01:20:53.609Z,16.67
2022-08-02T01:21:53.575Z,16.67
2022-08-02T01:23:02.264Z,16.77
2022-08-02T01:23:53.555Z,16.74
2022-08-02T01:24:53.536Z,16.76
2022-08-02T01:25:53.498Z,16.70
2022-08-02T01:26:53.476Z,16.70
2022-08-02T01:27:53.488Z,16.70
2022-08-02T01:28:53.444Z,16.65
2022-08-02T01:29:53.423Z,16.70
2022-08-02T01:30:53.403Z,16.70
2022-08-02T01:31:53.385Z,16.65
2022-08-02T01:32:53.370Z,16.62
2022-08-02T01:34:15.573Z,16.70
2022-08-02T01:34:53.337Z,16.62
2022-08-02T01:35:53.317Z,16.64
2022-08-02T01:36:53.299Z,16.67
2022-08-02T01:37:53.277Z,16.65
2022-08-02T01:38:53.282Z,16.65
2022-08-02T01:39:53.240Z,16.64
2022-08-02T01:40:53.225Z,16.65
2022-08-02T01:41:58.033Z,16.69
2022-08-02T01:42:53.193Z,16.69
2022-08-02T01:43:53.167Z,16.64
2022-08-02T01:44:53.175Z,16.73
2022-08-02T01:45:53.132Z,16.69
2022-08-02T01:46:53.116Z,16.74
2022-08-02T01:47:53.101Z,16.74
2022-08-02T01:48:53.146Z,16.77
2022-08-02T01:49:53.089Z,16.77
2022-08-02T01:50:53.046Z,16.80
2022-08-02T01:51:53.023Z,16.73
2022-08-02T01:52:53.897Z,16.74
2022-08-02T01:53:52.990Z,16.72
2022-08-02T01:54:52.969Z,16.73
2022-08-02T01:55:57.839Z,16.72
2022-08-02T01:56:52.941Z,16.79
2022-08-02T01:57:52.920Z,16.72
2022-08-02T01:58:52.901Z,16.73
2022-08-02T01:59:52.894Z,16.76
2022-08-02T02:00:52.935Z,16.76
2022-08-02T02:01:52.900Z,16.70
2022-08-02T02:02:52.828Z,16.73
2022-08-02T02:03:52.812Z,16.70
2022-08-02T02:04:52.791Z,16.67
2022-08-02T02:05:52.801Z,16.59
2022-08-02T02:06:52.752Z,16.61
2022-08-02T02:07:52.746Z,16.49
2022-08-02T02:08:52.711Z,16.44
2022-08-02T02:09:52.699Z,16.34
2022-08-02T02:10:52.697Z,16.39
2022-08-02T02:12:05.224Z,16.32
2022-08-02T02:12:52.642Z,16.24
2022-08-02T02:13:52.625Z,16.18
2022-08-02T02:14:52.605Z,16.24
2022-08-02T02:15:52.600Z,16.09
2022-08-02T02:16:52.595Z,16.18
2022-08-02T02:18:10.953Z,16.22
2022-08-02T02:18:52.536Z,16.14
2022-08-02T02:19:52.521Z,16.16
2022-08-02T02:20:52.501Z,16.05
2022-08-02T02:21:52.510Z,16.16
2022-08-02T02:22:52.459Z,16.08
2022-08-02T02:23:52.444Z,16.13
2022-08-02T02:24:52.428Z,16.13
2022-08-02T02:25:53.038Z,16.16
2022-08-02T02:26:52.797Z,16.10
2022-08-02T02:27:52.392Z,16.09
2022-08-02T02:28:52.354Z,16.05
2022-08-02T02:29:52.334Z,16.13
2022-08-02T02:30:52.318Z,16.05
2022-08-02T02:31:52.298Z,16.02
2022-08-02T02:32:52.279Z,16.06
2022-08-02T02:33:52.281Z,15.99
2022-08-02T02:34:52.245Z,16.14
2022-08-02T02:35:52.237Z,16.09
2022-08-02T02:36:54.521Z,16.00
2022-08-02T02:37:52.249Z,15.98
2022-08-02T02:38:54.519Z,16.03
2022-08-02T02:39:52.152Z,15.98
2022-08-02T02:40:52.133Z,16.02
2022-08-02T02:41:52.112Z,16.02
2022-08-02T02:42:52.099Z,16.08
2022-08-02T02:43:52.079Z,16.10
2022-08-02T02:44:52.078Z,16.02
2022-08-02T02:45:52.039Z,16.03
2022-08-02T02:46:52.024Z,16.05
2022-08-02T02:47:52.006Z,16.00
2022-08-02T02:48:52.057Z,16.06
2022-08-02T02:49:51.966Z,15.99
2022-08-02T02:50:51.968Z,15.98
2022-08-02T02:51:51.938Z,15.95
2022-08-02T02:52:51.917Z,15.90
2022-08-02T02:54:30.450Z,15.80
2022-08-02T02:54:51.895Z,15.85
2022-08-02T02:56:02.232Z,15.83
2022-08-02T02:56:51.842Z,15.83
2022-08-02T02:57:51.822Z,15.91
2022-08-02T02:58:51.812Z,15.90
2022-08-02T02:59:51.799Z,15.88
2022-08-02T03:00:51.836Z,15.84
2022-08-02T03:01:56.940Z,15.88
2022-08-02T03:02:51.732Z,15.87
2022-08-02T03:03:51.711Z,15.81
2022-08-02T03:04:55.740Z,15.76
2022-08-02T03:05:51.675Z,15.76
2022-08-02T03:06:51.699Z,15.65
2022-08-02T03:07:51.639Z,15.63
2022-08-02T03:08:51.618Z,15.66
2022-08-02T03:09:54.276Z,15.65
2022-08-02T03:10:51.602Z,15.66
2022-08-02T03:11:51.564Z,15.60
2022-08-02T03:12:51.556Z,15.60
2022-08-02T03:13:51.531Z,15.52
2022-08-02T03:14:51.506Z,15.54
2022-08-02T03:15:51.486Z,15.59
2022-08-02T03:16:51.486Z,15.65
2022-08-02T03:17:51.452Z,15.65
2022-08-02T03:18:51.446Z,15.56
2022-08-02T03:19:51.416Z,15.62
2022-08-02T03:20:51.434Z,15.56
2022-08-02T03:21:57.276Z,15.56
2022-08-02T03:22:51.359Z,15.62
2022-08-02T03:23:51.340Z,15.58
2022-08-02T03:24:51.339Z,15.60
2022-08-02T03:25:51.307Z,15.54
2022-08-02T03:26:51.307Z,15.62
2022-08-02T03:27:51.266Z,15.59
2022-08-02T03:28:51.254Z,15.59
2022-08-02T03:29:51.243Z,15.59
2022-08-02T03:30:51.210Z,15.58
2022-08-02T03:31:51.210Z,15.60
2022-08-02T03:32:51.172Z,15.60
2022-08-02T03:33:51.155Z,15.59
2022-08-02T03:34:51.152Z,15.56
2022-08-02T03:35:51.114Z,15.56
2022-08-02T03:36:51.093Z,15.60
2022-08-02T03:37:51.096Z,15.54
2022-08-02T03:38:51.065Z,15.48
2022-08-02T03:39:53.069Z,15.54
2022-08-02T03:40:51.027Z,15.50
2022-08-02T03:41:51.001Z,15.50
2022-08-02T03:42:51.000Z,15.48
2022-08-02T03:43:50.966Z,15.47
2022-08-02T03:44:50.949Z,15.50
2022-08-02T03:45:50.931Z,15.45
2022-08-02T03:46:50.910Z,15.32
2022-08-02T03:49:33.055Z,15.23
2022-08-02T03:50:32.981Z,15.40
2022-08-02T03:51:32.961Z,15.36
2022-08-02T03:52:32.937Z,15.30
2022-08-02T03:56:57.000Z,15.32
2022-08-02T03:57:56.987Z,15.27
2022-08-02T03:58:56.984Z,15.30
2022-08-02T03:59:56.947Z,15.35
2022-08-02T04:00:56.983Z,15.35
2022-08-02T04:01:56.907Z,15.40
2022-08-02T04:02:56.892Z,15.35
2022-08-02T04:03:56.878Z,15.41
2022-08-02T04:04:56.867Z,15.36
2022-08-02T04:06:03.995Z,15.35
2022-08-02T04:06:56.817Z,15.43
2022-08-02T04:08:34.930Z,15.43
2022-08-02T04:08:56.777Z,15.47
2022-08-02T04:09:56.763Z,15.43
2022-08-02T04:10:56.756Z,15.43
2022-08-02T04:11:56.741Z,15.36
2022-08-02T04:12:56.702Z,15.35
2022-08-02T04:13:57.123Z,15.41
2022-08-02T04:14:56.672Z,15.36
2022-08-02T04:15:56.670Z,15.38
2022-08-02T04:16:56.632Z,15.44
2022-08-02T04:17:56.617Z,15.43
2022-08-02T04:18:56.591Z,15.51
2022-08-02T04:19:56.572Z,15.50
2022-08-02T04:20:56.572Z,15.52
2022-08-02T04:21:56.543Z,15.51
2022-08-02T04:22:56.515Z,15.54
2022-08-02T04:23:56.497Z,15.56
2022-08-02T04:24:56.486Z,15.68
2022-08-02T04:25:56.467Z,15.84
2022-08-02T04:28:38.508Z,15.88
2022-08-02T04:29:38.496Z,16.00
2022-08-02T04:30:38.473Z,16.02
2022-08-02T04:31:38.457Z,16.09
2022-08-02T04:32:38.456Z,16.14
2022-08-02T04:33:38.455Z,16.09
2022-08-02T04:34:38.404Z,16.28
2022-08-02T04:35:38.380Z,16.29
2022-08-02T04:36:38.357Z,16.26
2022-08-02T04:37:38.345Z,16.29
2022-08-02T04:38:38.365Z,16.36
2022-08-02T04:39:38.309Z,16.40
2022-08-02T04:40:38.302Z,16.40
2022-08-02T04:41:40.666Z,16.43
2022-08-02T04:42:38.266Z,16.44
2022-08-02T04:43:38.237Z,16.47
2022-08-02T04:44:38.227Z,16.47
2022-08-02T04:45:38.197Z,16.52
2022-08-02T04:46:45.064Z,16.58
2022-08-02T04:48:01.904Z,16.64
2022-08-02T04:48:38.171Z,16.65
2022-08-02T04:49:38.159Z,16.64
2022-08-02T04:50:38.105Z,16.70
2022-08-02T04:51:38.893Z,16.72
2022-08-02T04:52:40.759Z,16.76
2022-08-02T04:53:38.066Z,16.82
2022-08-02T04:54:38.061Z,16.82
2022-08-02T04:55:38.017Z,16.82
2022-08-02T04:56:38.038Z,16.79
2022-08-02T04:57:37.979Z,16.74
2022-08-02T04:58:40.316Z,16.77
2022-08-02T04:59:37.940Z,16.69
2022-08-02T05:00:38.025Z,16.87
2022-08-02T05:01:37.920Z,16.91
2022-08-02T05:02:37.887Z,16.94
2022-08-02T05:03:37.869Z,17.07
2022-08-02T05:04:37.851Z,17.09
2022-08-02T05:05:37.854Z,17.09
2022-08-02T05:06:37.840Z,17.16
2022-08-02T05:07:37.797Z,17.19
2022-08-02T05:08:37.779Z,17.22
2022-08-02T05:09:37.762Z,17.31
2022-08-02T05:10:37.769Z,17.22
2022-08-02T05:12:00.876Z,17.32
2022-08-02T05:24:22.112Z,17.57
2022-08-02T05:25:21.731Z,17.57
2022-08-02T05:26:21.704Z,17.68
2022-08-02T05:27:22.193Z,17.79
2022-08-02T05:28:21.660Z,17.73
2022-08-02T05:29:21.671Z,17.78
2022-08-02T05:30:21.713Z,17.83
2022-08-02T05:31:21.612Z,17.76
2022-08-02T05:32:23.777Z,17.91
2022-08-02T05:33:21.574Z,17.91
2022-08-02T05:34:21.581Z,17.94
2022-08-02T05:35:21.537Z,17.93
2022-08-02T05:36:21.701Z,17.96
2022-08-02T05:37:21.502Z,18.03
2022-08-02T05:38:26.066Z,17.97
2022-08-02T05:39:21.483Z,18.02
2022-08-02T05:40:26.036Z,18.01
2022-08-02T05:41:21.438Z,18.06
2022-08-02T05:42:21.409Z,18.06
2022-08-02T05:43:21.397Z,18.02
2022-08-02T05:44:21.394Z,18.03
2022-08-02T05:45:21.385Z,18.08
2022-08-02T05:46:21.339Z,18.09
2022-08-02T05:47:21.324Z,18.17
2022-08-02T05:48:21.312Z,18.20
2022-08-02T05:49:21.333Z,18.13
2022-08-02T05:50:21.279Z,18.12
2022-08-02T05:51:21.266Z,18.17
2022-08-02T05:52:21.233Z,18.18
2022-08-02T05:53:21.214Z,18.26
2022-08-02T05:54:21.196Z,18.31
2022-08-02T05:55:21.186Z,18.33
2022-08-02T05:56:21.180Z,18.21
2022-08-02T05:57:21.141Z,18.34
2022-08-02T05:58:21.132Z,18.36
2022-08-02T05:59:21.114Z,18.41
2022-08-02T06:00:21.121Z,18.34
2022-08-02T06:01:21.133Z,18.48
2022-08-02T06:02:21.106Z,18.49
2022-08-02T06:03:21.037Z,18.48
2022-08-02T06:04:21.022Z,18.54
2022-08-02T06:05:21.002Z,18.54
2022-08-02T06:06:21.004Z,18.63
2022-08-02T06:07:21.069Z,18.61
2022-08-02T06:08:20.976Z,18.67
2022-08-02T06:09:23.261Z,18.67
2022-08-02T06:10:20.916Z,18.71
2022-08-02T06:11:20.893Z,18.70
2022-08-02T06:12:20.877Z,18.71
2022-08-02T06:13:20.966Z,18.75
2022-08-02T06:14:20.842Z,18.71
2022-08-02T06:15:20.822Z,18.71
2022-08-02T06:16:31.795Z,18.68
2022-08-02T06:17:20.812Z,18.81
2022-08-02T06:18:28.586Z,18.81
2022-08-02T06:19:20.757Z,18.78
2022-08-02T06:20:20.743Z,18.82
2022-08-02T06:22:31.642Z,18.85
2022-08-02T06:22:35.179Z,18.86
2022-08-02T06:23:20.698Z,18.96
2022-08-02T06:24:20.668Z,18.96
2022-08-02T06:25:50.371Z,19.00
2022-08-02T06:26:20.634Z,19.07
2022-08-02T06:27:20.638Z,19.12
2022-08-02T06:28:20.615Z,19.13
2022-08-02T06:29:20.603Z,19.23
2022-08-02T06:30:20.591Z,19.20
2022-08-02T06:31:20.560Z,19.35
2022-08-02T06:32:20.535Z,19.30
2022-08-02T06:33:20.524Z,19.42
2022-08-02T06:34:20.492Z,19.38
2022-08-02T06:35:20.481Z,19.42
2022-08-02T06:36:20.475Z,19.42
2022-08-02T06:37:20.447Z,19.47
2022-08-02T06:47:11.989Z,19.77
2022-08-02T06:48:07.972Z,19.84
2022-08-02T06:49:08.003Z,19.86
2022-08-02T06:50:07.937Z,19.74
2022-08-02T06:51:07.950Z,19.75
2022-08-02T06:52:08.120Z,19.72
2022-08-02T06:53:07.889Z,19.87
2022-08-02T06:54:07.866Z,19.90
2022-08-02T06:55:07.856Z,19.96
2022-08-02T06:56:07.831Z,20.04
2022-08-02T06:57:30.967Z,19.99
2022-08-02T06:58:07.847Z,20.17
2022-08-02T06:59:07.774Z,20.23
2022-08-02T07:00:07.768Z,20.32
2022-08-02T07:01:07.795Z,20.32
2022-08-02T07:02:07.846Z,20.33
2022-08-02T07:03:07.732Z,20.33
2022-08-02T07:04:07.698Z,20.58
2022-08-02T07:05:07.695Z,20.55
2022-08-02T07:06:07.668Z,20.55
2022-08-02T07:07:07.641Z,20.63
2022-08-02T07:08:07.648Z,20.75
2022-08-02T07:11:07.592Z,20.75
2022-08-02T07:12:07.647Z,20.77
2022-08-02T07:13:07.566Z,20.83
2022-08-02T07:14:07.547Z,20.92
2022-08-02T07:15:12.955Z,20.92
2022-08-02T07:16:11.954Z,20.92
2022-08-02T07:17:07.494Z,20.93
2022-08-02T07:18:07.461Z,21.04
2022-08-02T07:19:07.464Z,21.04
2022-08-02T07:20:07.434Z,21.05
2022-08-02T07:21:08.827Z,21.03
2022-08-02T07:22:07.398Z,21.07
2022-08-02T07:23:07.387Z,21.10
2022-08-02T07:24:07.365Z,21.14
2022-08-02T07:25:07.365Z,21.11
2022-08-02T07:34:55.291Z,21.58
2022-08-02T07:35:54.985Z,21.51
2022-08-02T07:36:56.822Z,21.47
2022-08-02T07:37:58.205Z,21.58
2022-08-02T07:38:58.822Z,21.55
2022-08-02T07:39:54.922Z,21.63
2022-08-02T07:40:54.908Z,21.71
2022-08-02T07:41:54.882Z,21.67
2022-08-02T07:42:59.335Z,21.74
2022-08-02T07:43:54.841Z,21.69
2022-08-02T07:44:54.821Z,21.75
2022-08-02T07:45:56.460Z,21.80
2022-08-02T07:46:54.789Z,21.75
2022-08-02T07:47:54.772Z,21.88
2022-08-02T07:48:54.812Z,22.01
2022-08-02T07:49:54.743Z,22.07
2022-08-02T07:50:54.762Z,22.01
2022-08-02T07:51:54.708Z,22.03
2022-08-02T07:52:57.745Z,22.07
2022-08-02T07:54:02.541Z,22.12
2022-08-02T07:54:54.672Z,22.25
2022-08-02T07:55:54.658Z,22.31
2022-08-02T07:56:58.358Z,22.36
2022-08-02T07:57:54.617Z,22.33
2022-08-02T07:58:54.596Z,22.49
2022-08-02T07:59:54.599Z,22.59
2022-08-02T08:00:54.581Z,22.67
2022-08-02T08:01:54.624Z,22.85
2022-08-02T08:02:58.597Z,22.77
2022-08-02T08:03:54.518Z,22.89
2022-08-02T08:04:54.508Z,22.81
2022-08-02T08:05:54.482Z,22.89
2022-08-02T08:06:54.486Z,22.89
2022-08-02T08:07:54.450Z,22.89
2022-08-02T08:08:54.435Z,22.99
2022-08-02T08:09:56.540Z,23.13
2022-08-02T08:10:54.407Z,23.25
2022-08-02T08:11:54.382Z,23.25
2022-08-02T08:12:54.399Z,23.26
2022-08-02T08:13:54.358Z,23.34
2022-08-02T08:14:54.340Z,23.34
2022-08-02T08:15:54.319Z,23.37
2022-08-02T08:17:04.425Z,23.54
2022-08-02T08:17:54.313Z,23.55
2022-08-02T08:18:54.290Z,23.66
2022-08-02T08:19:54.279Z,23.70
2022-08-02T08:20:54.326Z,23.73
2022-08-02T08:21:54.235Z,23.81
2022-08-02T08:22:54.212Z,23.69
2022-08-02T08:23:54.229Z,23.76
2022-08-02T08:25:57.865Z,23.92
2022-08-02T08:26:54.157Z,23.92
2022-08-02T08:27:54.139Z,23.92
2022-08-02T08:28:54.145Z,24.04
2022-08-02T08:29:54.120Z,24.11
2022-08-02T08:30:54.090Z,24.15
2022-08-02T08:31:54.081Z,24.22
2022-08-02T08:32:54.079Z,24.18
2022-08-02T08:33:54.042Z,24.23
2022-08-02T08:34:54.061Z,24.29
2022-08-02T08:35:54.012Z,24.31
2022-08-02T08:36:54.003Z,24.34
2022-08-02T08:37:54.008Z,24.43
2022-08-02T08:38:53.969Z,24.51
2022-08-02T08:39:58.111Z,24.51
2022-08-02T08:40:53.958Z,24.56
2022-08-02T08:41:53.924Z,24.65
2022-08-02T08:42:53.902Z,24.63
2022-08-02T08:43:53.889Z,24.68
2022-08-02T08:44:53.898Z,24.66
2022-08-02T08:45:55.985Z,24.65
2022-08-02T08:46:53.844Z,24.70
2022-08-02T08:47:53.830Z,24.79
2022-08-02T08:48:53.890Z,24.90
2022-08-02T08:49:53.802Z,25.08
2022-08-02T08:50:53.807Z,25.00
2022-08-02T08:51:53.787Z,25.11
2022-08-02T08:52:53.771Z,25.26
2022-08-02T08:53:53.741Z,25.31
2022-08-02T08:54:53.726Z,25.14
2022-08-02T08:55:53.725Z,25.21
2022-08-02T08:56:53.697Z,25.34
2022-08-02T08:57:53.706Z,25.49
2022-08-02T08:58:53.665Z,25.61
2022-08-02T08:59:53.679Z,25.70
2022-08-02T09:00:53.682Z,25.78
2022-08-02T09:01:53.681Z,25.96
2022-08-02T09:02:53.611Z,26.05
2022-08-02T09:03:53.602Z,25.95
2022-08-02T09:04:55.181Z,26.01
2022-08-02T09:05:53.569Z,25.96
2022-08-02T09:06:53.551Z,25.89
2022-08-02T09:07:53.573Z,26.00
2022-08-02T09:08:53.522Z,25.92
2022-08-02T09:09:53.511Z,25.92
2022-08-02T09:10:53.493Z,25.89
2022-08-02T09:11:53.480Z,25.98
2022-08-02T09:12:53.480Z,26.05
2022-08-02T09:13:53.477Z,25.93
2022-08-02T09:14:53.437Z,25.96
2022-08-02T09:15:53.421Z,26.07
2022-08-02T09:16:53.404Z,26.08
2022-08-02T09:17:53.393Z,26.12
2022-08-02T09:18:53.401Z,26.28
2022-08-02T09:19:53.367Z,26.42
2022-08-02T09:20:53.366Z,26.52
2022-08-02T09:21:53.334Z,26.70
2022-08-02T09:22:53.351Z,26.76
2022-08-02T09:23:53.309Z,27.01
2022-08-02T09:24:53.316Z,26.93
2022-08-02T09:25:59.236Z,26.65
2022-08-02T09:26:53.274Z,26.49
2022-08-02T09:27:53.259Z,26.24
2022-08-02T09:28:53.260Z,26.27
2022-08-02T09:30:12.199Z,26.23
2022-08-02T09:30:53.232Z,26.60
2022-08-02T09:31:53.204Z,26.93
2022-08-02T09:32:53.189Z,27.38
2022-08-02T09:33:53.175Z,27.83
2022-08-02T09:34:53.178Z,27.93
2022-08-02T09:36:06.582Z,27.83
2022-08-02T09:36:54.653Z,27.80
2022-08-02T09:37:53.127Z,28.13
2022-08-02T09:38:53.129Z,28.47
2022-08-02T09:39:57.178Z,28.61
2022-08-02T09:40:53.099Z,28.72
2022-08-02T09:41:53.074Z,28.72
2022-08-02T09:42:53.058Z,28.62
2022-08-02T09:44:05.412Z,28.59
2022-08-02T09:44:53.027Z,28.34
2022-08-02T09:45:53.050Z,28.49
2022-08-02T09:46:53.010Z,28.57
2022-08-02T09:47:52.997Z,28.30
2022-08-02T09:48:53.087Z,27.87
2022-08-02T09:49:52.977Z,27.73
2022-08-02T09:50:52.980Z,27.79
2022-08-02T09:51:52.949Z,27.88
2022-08-02T09:52:52.954Z,28.12
2022-08-02T09:54:06.060Z,28.06
2022-08-02T09:54:52.936Z,28.16
2022-08-02T09:55:52.903Z,27.91
2022-08-02T09:56:52.911Z,27.82
2022-08-02T09:57:52.896Z,27.41
2022-08-02T09:58:52.871Z,27.25
2022-08-02T09:59:52.874Z,27.15
2022-08-02T10:00:53.051Z,26.95
2022-08-02T10:02:01.430Z,26.90
2022-08-02T10:02:52.826Z,26.83
2022-08-02T10:03:52.820Z,26.68
2022-08-02T10:04:54.215Z,26.57
2022-08-02T10:05:55.425Z,26.63
2022-08-02T10:06:52.797Z,26.45
2022-08-02T10:07:52.770Z,26.36
2022-08-02T10:08:52.760Z,26.39
2022-08-02T10:09:52.752Z,26.64
2022-08-02T10:10:52.737Z,26.76
2022-08-02T10:11:52.749Z,26.88
2022-08-02T10:12:52.715Z,27.08
2022-08-02T10:13:52.698Z,27.25
2022-08-02T10:14:52.714Z,27.41
2022-08-02T10:15:52.673Z,27.69
2022-08-02T10:16:52.664Z,27.75
2022-08-02T10:17:52.671Z,27.93
2022-08-02T10:18:52.661Z,28.00
2022-08-02T10:20:02.332Z,28.09
2022-08-02T10:20:52.619Z,28.46
2022-08-02T10:21:52.609Z,28.62
2022-08-02T10:22:52.611Z,28.42
2022-08-02T10:23:52.595Z,28.53
2022-08-02T10:24:52.596Z,28.32
2022-08-02T10:25:52.568Z,28.00
2022-08-02T10:26:52.553Z,27.87
2022-08-02T10:28:05.118Z,27.79
2022-08-02T10:28:52.532Z,28.06
2022-08-02T10:29:54.651Z,28.43
2022-08-02T10:30:52.505Z,28.42
2022-08-02T10:31:52.502Z,28.32
2022-08-02T10:32:52.523Z,28.17
2022-08-02T10:33:52.479Z,28.38
2022-08-02T10:34:52.476Z,28.61
2022-08-02T10:36:04.620Z,28.80
2022-08-02T10:36:52.448Z,29.25
2022-08-02T10:37:52.437Z,28.96
2022-08-02T10:38:52.439Z,29.02
2022-08-02T10:39:52.418Z,29.49
2022-08-02T10:40:52.423Z,29.91
2022-08-02T10:41:52.396Z,29.68
2022-08-02T10:42:52.391Z,29.89
2022-08-02T10:43:52.389Z,30.15
2022-08-02T10:44:52.367Z,30.20
2022-08-02T10:45:52.381Z,30.49
2022-08-02T10:46:52.347Z,30.45
2022-08-02T10:47:52.342Z,30.64
2022-08-02T10:48:52.354Z,30.51
2022-08-02T10:49:52.386Z,29.84
2022-08-02T10:50:52.338Z,29.86
2022-08-02T10:51:52.300Z,29.91
2022-08-02T10:52:52.296Z,29.95
2022-08-02T10:53:52.283Z,29.92
2022-08-02T10:54:53.183Z,29.71
2022-08-02T10:55:52.264Z,29.37
2022-08-02T10:56:52.274Z,29.29
2022-08-02T10:57:52.272Z,29.39
2022-08-02T10:58:52.238Z,29.37
2022-08-02T10:59:52.226Z,29.40
2022-08-02T11:00:52.262Z,29.66
2022-08-02T11:01:52.210Z,29.62
2022-08-02T11:02:53.070Z,29.89
2022-08-02T11:03:52.210Z,29.89
2022-08-02T11:04:52.181Z,29.71
2022-08-02T11:05:52.191Z,29.29
2022-08-02T11:06:52.171Z,29.24
2022-08-02T11:07:52.181Z,29.49
2022-08-02T11:08:52.148Z,29.50
2022-08-02T11:09:52.139Z,29.28
2022-08-02T11:10:52.165Z,28.87
2022-08-02T11:11:53.476Z,28.71
2022-08-02T11:12:52.112Z,28.57
2022-08-02T11:13:52.118Z,28.61
2022-08-02T11:14:54.582Z,28.61
2022-08-02T11:15:52.077Z,28.68
2022-08-02T11:16:52.071Z,28.68
2022-08-02T11:17:52.061Z,28.61
2022-08-02T11:18:52.051Z,28.57
2022-08-02T11:19:52.065Z,28.75
2022-08-02T11:20:52.031Z,28.81
2022-08-02T11:21:52.047Z,28.81
2022-08-02T11:22:52.013Z,29.03
2022-08-02T11:23:52.022Z,29.24
2022-08-02T11:24:52.007Z,29.34
2022-08-02T11:26:03.614Z,29.07
2022-08-02T11:26:51.970Z,29.02
2022-08-02T11:27:51.994Z,28.87
2022-08-02T11:28:51.957Z,28.86
2022-08-02T11:29:51.944Z,28.86
2022-08-02T11:30:51.953Z,28.74
2022-08-02T11:31:51.938Z,28.62
2022-08-02T11:32:51.923Z,28.59
2022-08-02T11:33:51.906Z,28.59
2022-08-02T11:34:51.916Z,28.68
2022-08-02T11:35:51.894Z,28.90
2022-08-02T11:36:51.887Z,29.17
2022-08-02T11:37:51.867Z,29.31
2022-08-02T11:38:51.864Z,29.31
2022-08-02T11:39:51.845Z,29.55
2022-08-02T11:40:57.273Z,29.68
2022-08-02T11:41:51.843Z,29.96
2022-08-02T11:42:51.834Z,29.93
2022-08-02T11:43:51.804Z,29.84
2022-08-02T11:44:51.800Z,29.44
2022-08-02T11:45:51.801Z,29.09
2022-08-02T11:46:51.791Z,29.02
2022-08-02T11:47:51.763Z,29.10
2022-08-02T11:48:51.829Z,29.29
2022-08-02T11:49:51.744Z,29.29
2022-08-02T11:50:51.736Z,29.17
2022-08-02T11:51:54.123Z,28.89
2022-08-02T11:52:51.724Z,28.81
2022-08-02T11:53:51.701Z,28.77
2022-08-02T11:54:51.715Z,28.68
2022-08-02T11:55:51.689Z,28.75
2022-08-02T11:56:51.678Z,28.81
2022-08-02T11:58:04.727Z,28.87
2022-08-02T11:58:51.676Z,28.83
2022-08-02T11:59:51.645Z,28.65
2022-08-02T12:00:51.637Z,28.65
2022-08-02T12:01:51.634Z,28.80
2022-08-02T12:02:51.659Z,28.83
2022-08-02T12:03:51.675Z,28.68
2022-08-02T12:04:51.598Z,28.43
2022-08-02T12:06:05.327Z,28.31
2022-08-02T12:06:51.640Z,28.34
2022-08-02T12:07:51.562Z,28.30
2022-08-02T12:08:54.413Z,28.42
2022-08-02T12:09:51.546Z,28.53
2022-08-02T12:10:51.534Z,28.61
2022-08-02T12:11:51.529Z,28.59
2022-08-02T12:12:51.807Z,28.81
2022-08-02T12:13:56.489Z,28.87
2022-08-02T12:14:51.492Z,29.09
2022-08-02T12:15:51.478Z,29.36
2022-08-02T12:16:51.468Z,29.27
2022-08-02T12:17:51.475Z,29.54
2022-08-02T12:18:51.445Z,29.76
2022-08-02T12:19:51.435Z,29.83
2022-08-02T12:20:51.433Z,30.15
2022-08-02T12:21:51.430Z,30.43
2022-08-02T12:22:51.425Z,30.82
2022-08-02T12:24:00.285Z,31.01
2022-08-02T12:24:51.384Z,31.01
2022-08-02T12:25:51.389Z,31.11
2022-08-02T12:26:51.367Z,31.17
2022-08-02T12:27:53.452Z,31.57
2022-08-02T12:28:51.347Z,31.82
2022-08-02T12:29:58.724Z,31.95
2022-08-02T12:30:51.336Z,31.78
2022-08-02T12:31:56.102Z,31.27
2022-08-02T12:32:51.311Z,31.14
2022-08-02T12:33:51.309Z,31.11
2022-08-02T12:34:51.294Z,30.97
2022-08-02T12:35:51.291Z,31.01
2022-08-02T12:36:51.321Z,31.32
2022-08-02T12:37:51.296Z,31.56
2022-08-02T12:38:51.264Z,31.51
2022-08-02T12:39:51.264Z,31.41
2022-08-02T12:40:51.250Z,31.57
2022-08-02T12:41:55.037Z,31.67
2022-08-02T12:42:51.251Z,31.56
2022-08-02T12:43:51.233Z,31.26
2022-08-02T12:44:51.249Z,31.02
2022-08-02T12:45:51.209Z,31.02
2022-08-02T12:46:51.196Z,30.90
2022-08-02T12:47:51.203Z,30.96
2022-08-02T12:49:15.019Z,30.71
2022-08-02T12:49:51.251Z,30.82
2022-08-02T12:50:51.194Z,30.80
2022-08-02T12:51:57.566Z,31.04
2022-08-02T12:52:51.152Z,30.89
2022-08-02T12:53:59.640Z,31.10
2022-08-02T12:54:51.177Z,31.39
2022-08-02T12:56:00.913Z,31.48
2022-08-02T12:56:51.116Z,31.60
2022-08-02T12:57:51.112Z,31.23
2022-08-02T12:58:51.231Z,30.97
2022-08-02T12:59:51.113Z,30.99
2022-08-02T13:00:51.084Z,31.20
2022-08-02T13:01:51.125Z,31.17
2022-08-02T13:02:51.065Z,31.01
2022-08-02T13:04:11.736Z,30.77
2022-08-02T13:04:51.234Z,30.52
2022-08-02T13:05:57.239Z,30.68
2022-08-02T13:06:51.066Z,30.62
2022-08-02T13:07:51.042Z,30.52
2022-08-02T13:08:51.043Z,30.75
2022-08-02T13:09:51.006Z,30.95
2022-08-02T13:10:50.996Z,31.17
2022-08-02T13:11:50.990Z,31.41
2022-08-02T13:12:50.998Z,31.60
2022-08-02T13:13:50.966Z,31.32
2022-08-02T13:14:50.978Z,31.10
2022-08-02T13:15:51.553Z,31.08
2022-08-02T13:16:50.945Z,31.14
2022-08-02T13:17:50.936Z,31.19
2022-08-02T13:18:50.925Z,31.01
2022-08-02T13:19:51.184Z,31.01
2022-08-02T13:20:50.909Z,31.08
2022-08-02T13:22:02.277Z,30.80
2022-08-02T13:22:52.960Z,30.60
2022-08-02T13:23:54.088Z,30.67
2022-08-02T13:24:55.688Z,30.59
2022-08-02T13:25:52.458Z,30.58
2022-08-02T13:26:50.872Z,30.49
2022-08-02T13:27:50.870Z,30.77
2022-08-02T13:28:50.850Z,30.96
2022-08-02T13:29:50.842Z,31.14
2022-08-02T13:30:50.834Z,31.12
2022-08-02T13:31:50.813Z,31.22
2022-08-02T13:32:50.801Z,30.95